createdAt,value
2022-09-17T00:01:57.452Z,49.29
2022-09-17T00:04:23.224Z,49.35
2022-09-17T00:06:48.894Z,49.49
2022-09-17T00:09:14.838Z,49.40
2022-09-17T00:11:41.319Z,49.32
2022-09-17T00:14:08.562Z,49.51
2022-09-17T00:16:35.671Z,49.36
2022-09-17T00:19:01.925Z,49.45
2022-09-17T00:21:27.877Z,49.30
2022-09-17T00:23:55.554Z,49.34
2022-09-17T00:26:21.226Z,49.46
2022-09-17T00:28:50.565Z,49.62
2022-09-17T00:31:16.431Z,49.50
2022-09-17T00:33:42.122Z,49.43
2022-09-17T00:36:07.785Z,49.48
2022-09-17T00:38:33.569Z,49.49
2022-09-17T00:40:59.459Z,49.48
2022-09-17T00:43:33.100Z,49.53
2022-09-17T00:45:58.986Z,49.58
2022-09-17T00:48:24.583Z,49.45
2022-09-17T00:50:50.257Z,49.44
2022-09-17T00:53:16.735Z,49.50
2022-09-17T00:55:43.353Z,49.50
2022-09-17T00:58:09.538Z,49.43
2022-09-17T01:00:35.250Z,49.59
2022-09-17T01:03:00.990Z,49.60
2022-09-17T01:05:30.382Z,49.54
2022-09-17T01:08:00.805Z,49.56
2022-09-17T01:10:46.348Z,49.57
2022-09-17T01:13:17.583Z,49.38
2022-09-17T01:16:01.796Z,49.60
2022-09-17T01:18:33.333Z,49.68
2022-09-17T01:21:19.015Z,49.79
2022-09-17T01:23:50.494Z,49.57
2022-09-17T01:26:24.143Z,49.53
2022-09-17T01:29:09.834Z,49.50
2022-09-17T01:31:38.136Z,49.66
2022-09-17T01:34:23.727Z,49.53
2022-09-17T01:36:52.530Z,49.51
2022-09-17T01:39:24.202Z,49.62
2022-09-17T01:41:51.398Z,49.63
2022-09-17T01:44:37.030Z,49.66
2022-09-17T01:47:04.614Z,49.64
2022-09-17T01:49:30.987Z,49.50
2022-09-17T01:51:56.621Z,49.52
2022-09-17T01:54:23.285Z,49.58
2022-09-17T01:56:51.432Z,49.50
2022-09-17T01:59:19.347Z,49.54
2022-09-17T02:01:45.613Z,49.46
2022-09-17T02:04:15.594Z,49.56
2022-09-17T02:06:42.554Z,49.68
2022-09-17T02:09:15.447Z,49.69
2022-09-17T02:11:41.499Z,49.71
2022-09-17T02:14:07.697Z,49.55
2022-09-17T02:16:33.906Z,49.63
2022-09-17T02:19:01.948Z,49.63
2022-09-17T02:21:33.598Z,49.56
2022-09-17T02:26:40.309Z,49.56
2022-09-17T02:29:08.099Z,49.52
2022-09-17T02:31:33.885Z,49.70
2022-09-17T02:34:00.823Z,49.53
2022-09-17T02:36:26.848Z,49.70
2022-09-17T02:38:54.225Z,49.70
2022-09-17T02:41:21.587Z,49.56
2022-09-17T02:43:57.863Z,49.68
2022-09-17T02:46:28.732Z,49.54
2022-09-17T02:49:14.361Z,49.66
2022-09-17T02:51:44.278Z,49.65
2022-09-17T02:54:19.855Z,49.54
2022-09-17T02:56:51.258Z,49.56
2022-09-17T02:59:41.073Z,49.62
2022-09-17T03:02:09.566Z,49.70
2022-09-17T03:04:35.194Z,49.71
2022-09-17T03:07:05.253Z,49.72
2022-09-17T03:09:30.862Z,49.55
2022-09-17T03:11:56.441Z,49.52
2022-09-17T03:14:22.051Z,49.67
2022-09-17T03:16:47.630Z,49.54
2022-09-17T03:19:13.220Z,49.53
2022-09-17T03:21:38.829Z,49.54
2022-09-17T03:24:04.452Z,49.64
2022-09-17T03:26:30.039Z,49.66
2022-09-17T03:28:55.690Z,49.66
2022-09-17T03:31:21.306Z,49.56
2022-09-17T03:33:47.071Z,49.51
2022-09-17T03:36:12.655Z,49.58
2022-09-17T03:38:38.279Z,49.51
2022-09-17T03:41:06.314Z,49.54
2022-09-17T03:43:31.949Z,49.52
2022-09-17T03:45:57.546Z,49.63
2022-09-17T03:48:23.150Z,49.50
2022-09-17T03:50:48.782Z,49.70
2022-09-17T03:53:14.728Z,49.63
2022-09-17T03:55:40.413Z,49.72
2022-09-17T03:58:06.090Z,49.63
2022-09-17T04:00:31.807Z,49.70
2022-09-17T04:02:57.447Z,49.67
2022-09-17T04:05:23.090Z,49.68
2022-09-17T04:07:48.897Z,49.64
2022-09-17T04:10:14.514Z,49.60
2022-09-17T04:12:40.161Z,49.75
2022-09-17T04:15:06.065Z,49.58
2022-09-17T04:17:31.718Z,49.60
2022-09-17T04:19:57.696Z,49.57
2022-09-17T04:22:23.527Z,49.71
2022-09-17T04:24:49.110Z,49.57
2022-09-17T04:27:14.700Z,49.40
2022-09-17T04:29:40.357Z,49.67
2022-09-17T04:32:06.306Z,49.68
2022-09-17T04:34:32.363Z,49.69
2022-09-17T04:36:58.022Z,49.68
2022-09-17T04:39:23.631Z,49.57
2022-09-17T04:41:49.219Z,49.71
2022-09-17T04:44:14.798Z,49.65
2022-09-17T04:46:40.515Z,49.64
2022-09-17T04:49:06.857Z,49.58
2022-09-17T04:51:32.587Z,49.63
2022-09-17T04:53:58.229Z,49.66
2022-09-17T04:56:23.879Z,49.73
2022-09-17T04:58:49.507Z,49.69
2022-09-17T05:01:17.953Z,49.62
2022-09-17T05:03:44.138Z,49.63
2022-09-17T05:06:09.876Z,49.52
2022-09-17T05:08:35.479Z,49.69
2022-09-17T05:11:01.268Z,49.67
2022-09-17T05:13:26.891Z,49.75
2022-09-17T05:15:53.827Z,49.59
2022-09-17T05:18:19.479Z,49.65
2022-09-17T05:20:45.126Z,49.64
2022-09-17T05:23:10.711Z,49.64
2022-09-17T05:25:36.294Z,49.68
2022-09-17T05:28:01.938Z,49.68
2022-09-17T05:30:27.533Z,49.74
2022-09-17T05:33:01.322Z,49.66
2022-09-17T05:35:26.917Z,49.74
2022-09-17T05:37:55.690Z,49.55
2022-09-17T05:40:21.347Z,49.66
2022-09-17T05:42:47.062Z,49.67
2022-09-17T05:45:12.717Z,49.66
2022-09-17T05:47:38.346Z,49.68
2022-09-17T05:50:04.137Z,49.48
2022-09-17T05:52:29.718Z,49.58
2022-09-17T05:54:55.477Z,49.74
2022-09-17T05:57:21.238Z,49.66
2022-09-17T05:59:46.823Z,49.60
2022-09-17T06:02:13.025Z,49.72
2022-09-17T06:04:38.641Z,49.52
2022-09-17T06:07:06.601Z,49.74
2022-09-17T06:09:33.846Z,49.72
2022-09-17T06:11:59.559Z,49.67
2022-09-17T06:14:25.148Z,49.68
2022-09-17T06:16:50.730Z,49.61
2022-09-17T06:19:16.317Z,49.73
2022-09-17T06:21:41.922Z,49.49
2022-09-17T06:24:08.986Z,49.70
2022-09-17T06:26:34.579Z,49.64
2022-09-17T06:29:00.339Z,49.62
2022-09-17T06:31:26.097Z,49.66
2022-09-17T06:33:51.766Z,49.53
2022-09-17T06:36:17.371Z,49.65
2022-09-17T06:38:43.030Z,49.67
2022-09-17T06:41:08.746Z,49.70
2022-09-17T06:43:34.390Z,49.69
2022-09-17T06:46:00.913Z,49.68
2022-09-17T06:48:26.765Z,49.51
2022-09-17T06:50:53.569Z,49.67
2022-09-17T06:53:19.706Z,49.73
2022-09-17T06:55:45.294Z,49.54
2022-09-17T06:58:10.885Z,49.64
2022-09-17T07:00:36.498Z,49.73
2022-09-17T07:03:02.175Z,49.72
2022-09-17T07:05:28.438Z,49.65
2022-09-17T07:07:54.044Z,49.53
2022-09-17T07:10:19.970Z,49.66
2022-09-17T07:12:49.673Z,49.54
2022-09-17T07:15:15.769Z,49.67
2022-09-17T07:17:42.417Z,49.53
2022-09-17T07:20:08.436Z,49.81
2022-09-17T07:22:34.309Z,49.66
2022-09-17T07:24:59.906Z,49.60
2022-09-17T07:27:26.895Z,49.65
2022-09-17T07:29:52.526Z,49.64
2022-09-17T07:32:18.122Z,49.62
2022-09-17T07:34:43.704Z,49.61
2022-09-17T07:37:09.324Z,49.72
2022-09-17T07:39:34.946Z,49.54
2022-09-17T07:42:00.549Z,49.52
2022-09-17T07:44:27.191Z,49.63
2022-09-17T07:46:52.879Z,49.64
2022-09-17T07:49:19.106Z,49.53
2022-09-17T07:51:44.807Z,49.63
2022-09-17T07:54:10.386Z,49.70
2022-09-17T07:56:35.986Z,49.63
2022-09-17T07:59:01.881Z,49.67
2022-09-17T08:01:27.519Z,49.54
2022-09-17T08:03:53.482Z,49.66
2022-09-17T08:06:20.161Z,49.63
2022-09-17T08:08:46.143Z,49.64
2022-09-17T08:11:13.454Z,49.67
2022-09-17T08:13:39.301Z,49.64
2022-09-17T08:16:06.005Z,49.66
2022-09-17T08:18:31.833Z,49.61
2022-09-17T08:20:58.520Z,49.56
2022-09-17T08:23:24.659Z,49.54
2022-09-17T08:25:52.085Z,49.76
2022-09-17T08:28:17.883Z,49.59
2022-09-17T08:30:43.562Z,49.70
2022-09-17T08:33:09.166Z,49.51
2022-09-17T08:35:34.750Z,49.53
2022-09-17T08:38:00.537Z,49.47
2022-09-17T08:40:27.011Z,49.67
2022-09-17T08:42:56.579Z,49.70
2022-09-17T08:45:22.244Z,49.64
2022-09-17T08:47:47.885Z,49.62
2022-09-17T08:50:16.190Z,49.54
2022-09-17T08:53:02.003Z,49.70
2022-09-17T08:55:34.316Z,49.41
2022-09-17T08:58:05.494Z,49.57
2022-09-17T09:00:38.566Z,49.66
2022-09-17T09:03:17.431Z,49.57
2022-09-17T09:05:43.967Z,49.49
2022-09-17T09:08:16.215Z,49.63
2022-09-17T09:10:48.155Z,49.65
2022-09-17T09:13:14.609Z,49.53
2022-09-17T09:15:41.742Z,49.62
2022-09-17T09:18:11.790Z,49.62
2022-09-17T09:20:40.750Z,49.66
2022-09-17T09:23:10.192Z,49.62
2022-09-17T09:25:38.557Z,49.64
2022-09-17T09:28:24.107Z,49.63
2022-09-17T09:30:54.369Z,49.59
2022-09-17T09:33:24.047Z,49.54
2022-09-17T09:35:49.633Z,49.71
2022-09-17T09:38:17.842Z,49.55
2022-09-17T09:40:46.119Z,49.60
2022-09-17T09:43:14.930Z,49.50
2022-09-17T09:46:00.468Z,49.63
2022-09-17T09:48:29.910Z,49.64
2022-09-17T09:51:06.705Z,49.66
2022-09-17T09:53:43.742Z,49.66
2022-09-17T09:56:19.636Z,49.58
2022-09-17T09:58:45.267Z,49.66
2022-09-17T10:01:12.767Z,49.64
2022-09-17T10:03:39.339Z,49.64
2022-09-17T10:06:05.874Z,49.63
2022-09-17T10:08:32.527Z,49.52
2022-09-17T10:11:00.354Z,49.66
2022-09-17T10:13:26.450Z,49.64
2022-09-17T10:15:52.230Z,49.57
2022-09-17T10:18:19.745Z,49.71
2022-09-17T10:20:50.095Z,49.54
2022-09-17T10:23:15.930Z,49.66
2022-09-17T10:25:42.637Z,49.65
2022-09-17T10:28:20.740Z,49.58
2022-09-17T10:31:09.425Z,49.62
2022-09-17T10:33:36.165Z,49.61
2022-09-17T10:36:05.844Z,49.54
2022-09-17T10:38:32.580Z,49.53
2022-09-17T10:41:14.518Z,49.55
2022-09-17T10:43:40.685Z,49.71
2022-09-17T10:46:07.668Z,49.57
2022-09-17T10:48:35.899Z,49.60
2022-09-17T10:51:02.547Z,49.63
2022-09-17T10:53:28.286Z,49.26
2022-09-17T10:55:57.781Z,49.51
2022-09-17T10:58:24.241Z,49.64
2022-09-17T11:00:54.462Z,49.50
2022-09-17T11:03:40.035Z,49.71
2022-09-17T11:06:25.584Z,49.60
2022-09-17T11:11:51.219Z,49.51
2022-09-17T11:14:23.686Z,49.75
2022-09-17T11:17:09.236Z,49.71
2022-09-17T11:19:39.362Z,49.67
2022-09-17T11:22:10.833Z,49.37
2022-09-17T11:24:44.955Z,49.57
2022-09-17T11:27:30.523Z,49.53
2022-09-17T11:30:16.068Z,49.53
2022-09-17T11:33:00.288Z,49.72
2022-09-17T11:35:26.866Z,49.68
2022-09-17T11:38:01.711Z,49.67
2022-09-17T11:40:47.257Z,49.68
2022-09-17T11:43:16.014Z,49.54
2022-09-17T11:45:46.354Z,49.53
2022-09-17T11:48:13.198Z,49.64
2022-09-17T11:50:42.085Z,49.75
2022-09-17T11:53:27.739Z,49.68
2022-09-17T11:55:55.260Z,49.59
2022-09-17T11:58:25.459Z,49.69
2022-09-17T12:00:53.294Z,49.58
2022-09-17T12:03:23.955Z,49.53
2022-09-17T12:05:51.427Z,49.67
2022-09-17T12:08:34.121Z,49.67
2022-09-17T12:11:09.090Z,49.69
2022-09-17T12:13:36.221Z,49.61
2022-09-17T12:16:06.158Z,49.72
2022-09-17T12:18:51.720Z,49.54
2022-09-17T12:21:26.918Z,49.61
2022-09-17T12:23:55.135Z,49.68
2022-09-17T12:26:31.617Z,49.57
2022-09-17T12:29:07.971Z,49.69
2022-09-17T12:31:37.276Z,49.61
2022-09-17T12:34:12.971Z,49.75
2022-09-17T12:36:42.049Z,49.53
2022-09-17T12:39:11.994Z,49.60
2022-09-17T12:41:57.553Z,49.51
2022-09-17T12:44:43.119Z,49.66
2022-09-17T12:47:22.218Z,49.72
2022-09-17T12:49:54.047Z,49.71
2022-09-17T12:52:24.954Z,49.73
2022-09-17T12:55:10.499Z,49.64
2022-09-17T12:57:56.357Z,49.70
2022-09-17T13:00:21.946Z,49.78
2022-09-17T13:03:04.125Z,49.73
2022-09-17T13:05:49.674Z,49.67
2022-09-17T13:08:35.221Z,49.64
2022-09-17T13:11:06.015Z,49.67
2022-09-17T13:13:48.774Z,49.65
2022-09-17T13:16:20.108Z,49.75
2022-09-17T13:19:15.945Z,49.57
2022-09-17T13:22:01.881Z,49.64
2022-09-17T13:24:30.226Z,49.65
2022-09-17T13:26:57.851Z,49.71
2022-09-17T13:29:44.386Z,49.69
2022-09-17T13:32:29.937Z,49.64
2022-09-17T13:34:55.511Z,49.67
2022-09-17T13:37:21.715Z,49.63
2022-09-17T13:39:47.469Z,49.65
2022-09-17T13:42:28.875Z,49.69
2022-09-17T13:45:02.893Z,49.73
2022-09-17T13:47:29.450Z,49.73
2022-09-17T13:49:59.764Z,49.78
2022-09-17T13:52:45.314Z,49.69
2022-09-17T13:55:29.505Z,49.75
2022-09-17T13:57:55.103Z,49.60
2022-09-17T14:00:41.354Z,49.62
2022-09-17T14:03:26.950Z,49.73
2022-09-17T14:05:52.526Z,49.70
2022-09-17T14:08:28.448Z,49.66
2022-09-17T14:10:54.389Z,49.67
2022-09-17T14:13:24.395Z,49.77
2022-09-17T14:15:54.196Z,49.72
2022-09-17T14:18:34.486Z,49.72
2022-09-17T14:21:18.339Z,49.61
2022-09-17T14:23:44.862Z,49.80
2022-09-17T14:26:12.470Z,49.75
2022-09-17T14:28:40.139Z,49.79
2022-09-17T14:31:09.226Z,49.74
2022-09-17T14:33:34.820Z,49.70
2022-09-17T14:36:08.062Z,49.79
2022-09-17T14:38:43.518Z,49.82
2022-09-17T14:43:58.083Z,49.80
2022-09-17T14:46:24.360Z,49.79
2022-09-17T14:48:50.066Z,49.64
2022-09-17T14:54:15.622Z,49.66
2022-09-17T14:56:44.306Z,49.74
2022-09-17T14:59:14.398Z,49.91
2022-09-17T15:01:42.542Z,49.63
2022-09-17T15:04:18.285Z,49.79
2022-09-17T15:06:43.914Z,49.66
2022-09-17T15:09:25.237Z,49.80
2022-09-17T15:11:52.412Z,49.83
2022-09-17T15:14:19.983Z,49.78
2022-09-17T15:16:46.335Z,49.79
2022-09-17T15:19:13.424Z,49.84
2022-09-17T15:21:42.920Z,49.86
2022-09-17T15:24:13.115Z,49.73
2022-09-17T15:26:39.457Z,49.67
2022-09-17T15:29:05.115Z,49.71
2022-09-17T15:31:30.872Z,49.81
2022-09-17T15:34:00.163Z,49.69
2022-09-17T15:36:27.310Z,49.69
2022-09-17T15:38:53.133Z,49.86
2022-09-17T15:41:22.646Z,49.83
2022-09-17T15:43:48.841Z,49.72
2022-09-17T15:46:29.901Z,49.74
2022-09-17T15:48:57.521Z,49.87
2022-09-17T15:51:26.383Z,49.76
2022-09-17T15:53:54.297Z,49.76
2022-09-17T15:56:21.805Z,49.67
2022-09-17T16:04:10.090Z,49.81
2022-09-17T16:06:36.238Z,49.82
2022-09-17T16:09:02.207Z,49.68
2022-09-17T16:11:29.474Z,49.76
2022-09-17T16:13:55.661Z,49.82
2022-09-17T16:16:22.266Z,49.83
2022-09-17T16:18:48.327Z,49.92
2022-09-17T16:21:14.282Z,49.91
2022-09-17T16:23:39.994Z,49.78
2022-09-17T16:26:05.809Z,49.80
2022-09-17T16:28:31.414Z,49.82
2022-09-17T16:30:57.063Z,49.82
2022-09-17T16:33:22.874Z,49.80
2022-09-17T16:35:48.452Z,49.83
2022-09-17T16:38:14.239Z,49.86
2022-09-17T16:40:41.938Z,49.88
2022-09-17T16:43:07.994Z,49.78
2022-09-17T16:45:33.672Z,49.95
2022-09-17T16:47:59.315Z,49.92
2022-09-17T16:50:25.131Z,49.79
2022-09-17T16:52:50.882Z,49.91
2022-09-17T16:55:16.652Z,49.82
2022-09-17T16:57:42.309Z,49.76
2022-09-17T17:00:12.431Z,49.79
2022-09-17T17:02:38.231Z,49.94
2022-09-17T17:05:04.125Z,49.76
2022-09-17T17:07:31.278Z,49.93
2022-09-17T17:09:58.366Z,49.85
2022-09-17T17:12:24.123Z,49.81
2022-09-17T17:14:51.572Z,49.83
2022-09-17T17:17:17.565Z,49.77
2022-09-17T17:19:43.218Z,49.78
2022-09-17T17:22:08.833Z,49.82
2022-09-17T17:24:34.414Z,49.93
2022-09-17T17:27:00.903Z,49.92
2022-09-17T17:29:26.526Z,49.81
2022-09-17T17:31:53.274Z,49.88
2022-09-17T17:34:18.875Z,49.88
2022-09-17T17:36:44.637Z,49.85
2022-09-17T17:39:10.307Z,49.86
2022-09-17T17:41:35.944Z,49.95
2022-09-17T17:44:01.658Z,49.91
2022-09-17T17:46:27.282Z,49.79
2022-09-17T17:48:52.959Z,49.96
2022-09-17T17:51:18.630Z,49.85
2022-09-17T17:53:44.529Z,49.87
2022-09-17T17:56:10.558Z,49.91
2022-09-17T17:58:36.311Z,49.79
2022-09-17T18:01:21.877Z,49.94
2022-09-17T18:03:47.647Z,49.86
2022-09-17T18:06:13.350Z,49.77
2022-09-17T18:08:39.615Z,49.77
2022-09-17T18:11:07.331Z,49.94
2022-09-17T18:13:33.375Z,49.86
2022-09-17T18:15:59.875Z,49.88
2022-09-17T18:18:30.810Z,49.91
2022-09-17T18:20:58.984Z,49.91
2022-09-17T18:23:24.573Z,49.79
2022-09-17T18:25:52.033Z,49.82
2022-09-17T18:28:17.677Z,49.91
2022-09-17T18:30:43.287Z,49.86
2022-09-17T18:33:09.016Z,49.91
2022-09-17T18:35:35.889Z,49.95
2022-09-17T18:38:05.183Z,49.88
2022-09-17T18:40:31.104Z,49.87
2022-09-17T18:42:56.733Z,49.92
2022-09-17T18:45:22.321Z,49.77
2022-09-17T18:47:47.918Z,49.87
2022-09-17T18:50:13.600Z,49.95
2022-09-17T18:52:39.268Z,49.89
2022-09-17T18:55:05.180Z,49.81
2022-09-17T18:57:30.771Z,49.83
2022-09-17T18:59:57.685Z,50.18
2022-09-17T19:02:23.468Z,50.03
2022-09-17T19:04:49.157Z,49.77
2022-09-17T19:07:14.751Z,49.87
2022-09-17T19:09:40.367Z,49.84
2022-09-17T19:12:06.192Z,49.83
2022-09-17T19:14:32.043Z,49.77
2022-09-17T19:16:57.683Z,49.90
2022-09-17T19:19:23.262Z,49.89
2022-09-17T19:21:49.731Z,49.84
2022-09-17T19:24:15.444Z,49.80
2022-09-17T19:26:41.101Z,49.91
2022-09-17T19:29:08.244Z,49.90
2022-09-17T19:31:33.897Z,49.86
2022-09-17T19:33:59.577Z,49.82
2022-09-17T19:36:25.493Z,49.85
2022-09-17T19:38:51.215Z,49.83
2022-09-17T19:41:17.891Z,49.86
2022-09-17T19:43:44.417Z,49.81
2022-09-17T19:46:11.231Z,49.80
2022-09-17T19:48:36.907Z,49.87
2022-09-17T19:51:03.213Z,49.79
2022-09-17T19:53:28.854Z,49.83
2022-09-17T19:55:54.444Z,49.80
2022-09-17T19:58:20.029Z,49.92
2022-09-17T20:00:45.630Z,49.90
2022-09-17T20:03:11.463Z,49.88
2022-09-17T20:05:37.123Z,49.80
2022-09-17T20:08:03.180Z,49.81
2022-09-17T20:10:29.773Z,49.88
2022-09-17T20:12:56.007Z,49.87
2022-09-17T20:15:21.716Z,49.83
2022-09-17T20:17:47.311Z,49.85
2022-09-17T20:20:12.906Z,49.81
2022-09-17T20:22:38.555Z,49.81
2022-09-17T20:25:04.463Z,49.85
2022-09-17T20:27:30.097Z,49.72
2022-09-17T20:29:55.759Z,49.80
2022-09-17T20:32:21.355Z,49.78
2022-09-17T20:34:49.161Z,49.78
2022-09-17T20:37:14.999Z,49.80
2022-09-17T20:39:40.719Z,49.76
2022-09-17T20:42:06.421Z,49.82
2022-09-17T20:44:32.031Z,49.83
2022-09-17T20:46:57.735Z,49.82
2022-09-17T20:49:23.371Z,49.71
2022-09-17T20:51:49.031Z,49.86
2022-09-17T20:54:14.762Z,49.86
2022-09-17T20:56:40.412Z,49.86
2022-09-17T20:59:12.284Z,49.80
2022-09-17T21:01:38.249Z,49.80
2022-09-17T21:04:06.191Z,49.72
2022-09-17T21:06:32.958Z,49.82
2022-09-17T21:08:59.916Z,49.77
2022-09-17T21:11:25.618Z,49.85
2022-09-17T21:13:51.396Z,49.74
2022-09-17T21:16:17.259Z,49.68
2022-09-17T21:18:42.952Z,49.74
2022-09-17T21:21:10.403Z,49.91
2022-09-17T21:23:36.578Z,49.75
2022-09-17T21:26:03.775Z,49.79
2022-09-17T21:28:30.043Z,49.86
2022-09-17T21:31:00.887Z,49.87
2022-09-17T21:33:26.495Z,49.73
2022-09-17T21:35:52.092Z,49.75
2022-09-17T21:38:19.517Z,49.87
2022-09-17T21:41:01.390Z,49.86
2022-09-17T21:43:27.484Z,49.74
2022-09-17T21:45:56.775Z,49.83
2022-09-17T21:48:22.358Z,49.78
2022-09-17T21:50:47.983Z,49.70
2022-09-17T21:53:13.639Z,49.54
2022-09-17T21:55:39.232Z,49.80
2022-09-17T21:58:04.816Z,49.78
2022-09-17T22:00:30.500Z,49.80
2022-09-17T22:02:57.843Z,49.65
2022-09-17T22:05:23.647Z,49.92
2022-09-17T22:07:49.656Z,49.78
2022-09-17T22:10:17.225Z,49.80
2022-09-17T22:12:43.132Z,49.78
2022-09-17T22:15:09.405Z,49.62
2022-09-17T22:17:35.421Z,49.76
2022-09-17T22:20:02.151Z,49.88
2022-09-17T22:22:27.767Z,49.83
2022-09-17T22:24:53.347Z,49.84
2022-09-17T22:27:18.940Z,49.70
2022-09-17T22:29:44.515Z,49.84
2022-09-17T22:32:10.108Z,49.72
2022-09-17T22:34:36.140Z,49.80
2022-09-17T22:37:02.696Z,49.72
2022-09-17T22:39:28.522Z,49.79
2022-09-17T22:41:54.283Z,49.88
2022-09-17T22:44:19.921Z,49.79
2022-09-17T22:46:46.699Z,49.76
2022-09-17T22:49:12.491Z,49.83
2022-09-17T22:51:38.360Z,49.83
2022-09-17T22:54:04.389Z,49.66
2022-09-17T22:56:30.096Z,49.71
2022-09-17T22:58:56.364Z,49.86
2022-09-17T23:01:22.886Z,49.82
2022-09-17T23:03:49.639Z,49.73
2022-09-17T23:06:16.423Z,49.80
2022-09-17T23:08:42.137Z,49.80
2022-09-17T23:11:08.544Z,49.85
2022-09-17T23:13:34.459Z,49.68
2022-09-17T23:16:01.671Z,49.79
2022-09-17T23:18:27.315Z,49.74
2022-09-17T23:20:57.244Z,49.84
2022-09-17T23:23:24.692Z,49.74
2022-09-17T23:25:50.411Z,49.72
2022-09-17T23:28:16.002Z,49.80
2022-09-17T23:30:41.591Z,49.81
2022-09-17T23:33:08.584Z,49.75
2022-09-17T23:35:34.272Z,49.71
2022-09-17T23:37:59.868Z,49.79
2022-09-17T23:40:27.867Z,49.74
2022-09-17T23:42:54.120Z,49.74
2022-09-17T23:45:19.907Z,49.48
2022-09-17T23:47:45.508Z,49.65
2022-09-17T23:50:11.168Z,49.71
2022-09-17T23:52:36.771Z,49.77
2022-09-17T23:55:02.868Z,49.68
2022-09-17T23:57:28.593Z,49.71
2022-09-17T23:59:54.168Z,49.77
